createdAt,value
2019-05-10T00:01:14.763Z,1.80
2019-05-10T00:03:59.737Z,2.00
2019-05-10T00:06:44.749Z,2.10
2019-05-10T00:09:11.402Z,2.00
2019-05-10T00:11:42.992Z,1.73
2019-05-10T00:14:21.185Z,2.00
2019-05-10T00:16:49.219Z,1.60
2019-05-10T00:19:16.466Z,1.83
2019-05-10T00:21:43.738Z,1.80
2019-05-10T00:24:10.982Z,1.63
2019-05-10T00:26:38.246Z,1.97
2019-05-10T00:29:05.497Z,1.83
2019-05-10T00:31:32.760Z,2.10
2019-05-10T00:34:00.001Z,2.07
2019-05-10T00:36:27.267Z,2.10
2019-05-10T00:38:54.526Z,2.23
2019-05-10T00:41:21.866Z,1.60
2019-05-10T00:43:49.106Z,1.80
2019-05-10T00:46:16.513Z,2.20
2019-05-10T00:48:43.758Z,2.20
2019-05-10T00:51:11.269Z,2.10
2019-05-10T00:53:38.513Z,2.37
2019-05-10T00:56:06.044Z,2.00
2019-05-10T00:58:33.541Z,2.30
2019-05-10T01:01:00.820Z,2.40
2019-05-10T01:03:28.117Z,2.47
2019-05-10T01:05:55.389Z,2.10
2019-05-10T01:08:22.630Z,2.30
2019-05-10T01:10:50.118Z,2.50
2019-05-10T01:13:17.667Z,2.70
2019-05-10T01:15:46.931Z,2.67
2019-05-10T01:18:14.294Z,2.50
2019-05-10T01:20:41.812Z,2.60
2019-05-10T01:23:09.319Z,2.33
2019-05-10T01:25:36.562Z,2.87
2019-05-10T01:28:03.906Z,2.73
2019-05-10T01:30:31.223Z,2.57
2019-05-10T01:32:58.558Z,2.60
2019-05-10T01:35:25.879Z,2.77
2019-05-10T01:37:53.224Z,2.83
2019-05-10T01:40:20.550Z,3.00
2019-05-10T01:42:47.822Z,2.77
2019-05-10T01:45:15.925Z,2.77
2019-05-10T01:47:43.196Z,2.97
2019-05-10T01:50:10.506Z,2.90
2019-05-10T01:52:37.769Z,3.20
2019-05-10T01:55:08.251Z,2.90
2019-05-10T01:57:35.518Z,3.00
2019-05-10T02:00:03.325Z,2.80
2019-05-10T02:02:30.593Z,2.93
2019-05-10T02:04:57.851Z,2.70
2019-05-10T02:07:25.117Z,3.20
2019-05-10T02:09:52.612Z,2.93
2019-05-10T02:12:19.870Z,3.20
2019-05-10T02:14:47.386Z,2.90
2019-05-10T02:17:14.658Z,3.30
2019-05-10T02:19:41.901Z,3.10
2019-05-10T02:22:09.140Z,3.00
2019-05-10T02:24:36.406Z,3.03
2019-05-10T02:27:03.986Z,3.00
2019-05-10T02:29:31.509Z,2.80
2019-05-10T02:31:58.751Z,3.07
2019-05-10T02:34:26.025Z,3.30
2019-05-10T02:36:53.274Z,3.67
2019-05-10T02:39:20.855Z,2.67
2019-05-10T02:41:48.173Z,3.73
2019-05-10T02:44:15.457Z,3.70
2019-05-10T02:46:42.756Z,3.40
2019-05-10T02:49:10.033Z,3.63
2019-05-10T02:51:37.535Z,3.80
2019-05-10T02:54:04.805Z,3.43
2019-05-10T02:56:32.683Z,4.00
2019-05-10T02:59:00.086Z,3.77
2019-05-10T03:01:30.507Z,3.90
2019-05-10T03:03:59.314Z,3.53
2019-05-10T03:06:26.554Z,3.50
2019-05-10T03:08:53.887Z,4.07
2019-05-10T03:11:21.211Z,3.30
2019-05-10T03:13:49.648Z,3.63
2019-05-10T03:16:18.467Z,3.67
2019-05-10T03:18:47.103Z,3.50
2019-05-10T03:21:16.025Z,3.47
2019-05-10T03:23:43.270Z,4.13
2019-05-10T03:26:10.537Z,4.10
2019-05-10T03:28:37.786Z,3.53
2019-05-10T03:31:05.135Z,3.87
2019-05-10T03:33:32.379Z,3.57
2019-05-10T03:35:59.643Z,4.00
2019-05-10T03:38:27.225Z,4.47
2019-05-10T03:40:54.486Z,3.80
2019-05-10T03:43:21.730Z,4.50
2019-05-10T03:45:48.998Z,4.30
2019-05-10T03:48:16.245Z,4.23
2019-05-10T03:50:43.531Z,3.80
2019-05-10T03:53:10.834Z,4.03
2019-05-10T03:55:38.088Z,4.20
2019-05-10T03:58:05.329Z,3.90
2019-05-10T04:00:32.606Z,4.60
2019-05-10T04:02:59.851Z,4.00
2019-05-10T04:05:27.124Z,4.80
2019-05-10T04:07:54.371Z,4.60
2019-05-10T04:10:21.630Z,4.90
2019-05-10T04:12:48.870Z,4.60
2019-05-10T04:15:16.206Z,4.17
2019-05-10T04:17:43.459Z,4.27
2019-05-10T04:20:10.803Z,4.67
2019-05-10T04:22:38.200Z,4.07
2019-05-10T04:25:06.331Z,3.93
2019-05-10T04:27:34.644Z,3.87
2019-05-10T04:30:02.253Z,4.30
2019-05-10T04:32:30.144Z,3.63
2019-05-10T04:34:57.747Z,4.17
2019-05-10T04:37:27.775Z,4.60
2019-05-10T04:39:56.048Z,3.90
2019-05-10T04:42:23.305Z,3.63
2019-05-10T04:44:53.562Z,3.93
2019-05-10T04:47:19.539Z,3.90
2019-05-10T04:49:46.783Z,4.00
2019-05-10T04:52:14.048Z,3.87
2019-05-10T04:54:41.294Z,4.20
2019-05-10T04:57:08.563Z,3.83
2019-05-10T04:59:35.805Z,4.13
2019-05-10T05:02:03.158Z,3.70
2019-05-10T05:04:30.396Z,3.40
2019-05-10T05:06:57.659Z,3.70
2019-05-10T05:09:24.907Z,3.87
2019-05-10T05:11:52.248Z,3.77
2019-05-10T05:14:19.495Z,3.53
2019-05-10T05:16:46.758Z,3.20
2019-05-10T05:19:14.016Z,3.33
2019-05-10T05:21:41.277Z,3.50
2019-05-10T05:24:08.522Z,3.50
2019-05-10T05:26:35.793Z,3.30
2019-05-10T05:29:03.042Z,3.57
2019-05-10T05:31:31.062Z,3.37
2019-05-10T05:33:59.289Z,3.40
2019-05-10T05:36:27.307Z,3.27
2019-05-10T05:38:54.630Z,3.43
2019-05-10T05:41:22.155Z,3.20
2019-05-10T05:43:49.485Z,3.00
2019-05-10T05:46:16.741Z,3.50
2019-05-10T05:48:44.001Z,2.97
2019-05-10T05:51:11.246Z,3.23
2019-05-10T05:53:42.239Z,3.43
2019-05-10T05:56:12.849Z,3.00
2019-05-10T05:58:37.959Z,3.30
2019-05-10T06:01:05.423Z,2.90
2019-05-10T06:03:32.952Z,3.10
2019-05-10T06:06:00.202Z,2.97
2019-05-10T06:08:30.060Z,2.77
2019-05-10T06:10:59.578Z,3.20
2019-05-10T06:13:30.328Z,3.10
2019-05-10T06:15:54.386Z,2.70
2019-05-10T06:18:21.650Z,3.03
2019-05-10T06:20:48.900Z,2.90
2019-05-10T06:23:16.142Z,4.13
2019-05-10T06:25:43.455Z,2.50
2019-05-10T06:28:25.859Z,2.37
2019-05-10T06:30:39.675Z,2.60
2019-05-10T06:33:12.594Z,3.00
2019-05-10T06:35:35.916Z,2.70
2019-05-10T06:38:03.163Z,2.53
2019-05-10T06:40:34.791Z,2.10
2019-05-10T06:42:59.670Z,2.73
2019-05-10T06:45:26.943Z,2.50
2019-05-10T06:47:54.179Z,2.23
2019-05-10T06:50:29.052Z,2.80
2019-05-10T06:52:52.209Z,2.50
2019-05-10T06:55:19.666Z,2.50
2019-05-10T06:57:50.393Z,2.60
2019-05-10T07:00:16.167Z,2.37
2019-05-10T07:02:43.416Z,2.40
2019-05-10T07:05:10.931Z,2.50
2019-05-10T07:07:45.745Z,2.37
2019-05-10T07:10:15.776Z,2.53
2019-05-10T07:12:37.434Z,2.70
2019-05-10T07:15:06.652Z,2.43
2019-05-10T07:17:41.306Z,2.07
2019-05-10T07:20:04.465Z,2.00
2019-05-10T07:22:31.718Z,2.60
2019-05-10T07:25:04.378Z,2.50
2019-05-10T07:27:27.939Z,2.10
2019-05-10T07:29:55.184Z,2.23
2019-05-10T07:32:24.669Z,2.20
2019-05-10T07:34:58.987Z,2.33
2019-05-10T07:37:20.834Z,2.60
2019-05-10T07:39:48.150Z,2.33
2019-05-10T07:42:15.419Z,2.10
2019-05-10T07:44:46.795Z,2.50
2019-05-10T07:47:11.646Z,2.60
2019-05-10T07:49:38.898Z,2.70
2019-05-10T07:52:06.185Z,2.10
2019-05-10T07:54:37.705Z,2.40
2019-05-10T07:57:02.493Z,2.93
2019-05-10T07:59:33.853Z,3.00
2019-05-10T08:01:59.091Z,2.63
2019-05-10T08:04:31.808Z,2.50
2019-05-10T08:06:55.640Z,2.57
2019-05-10T08:09:22.886Z,2.57
2019-05-10T08:11:54.123Z,2.30
2019-05-10T08:14:19.332Z,2.40
2019-05-10T08:16:51.881Z,2.53
2019-05-10T08:19:15.893Z,2.13
2019-05-10T08:21:43.155Z,2.50
2019-05-10T08:24:14.419Z,2.50
2019-05-10T08:26:42.447Z,1.90
2019-05-10T08:29:13.636Z,2.10
2019-05-10T08:31:40.466Z,2.10
2019-05-10T08:34:06.837Z,2.17
2019-05-10T08:36:37.358Z,2.23
2019-05-10T08:39:10.450Z,2.00
2019-05-10T08:41:34.145Z,1.97
2019-05-10T08:44:04.763Z,2.43
2019-05-10T08:46:40.184Z,2.17
2019-05-10T08:49:01.927Z,1.70
2019-05-10T08:51:28.359Z,2.27
2019-05-10T08:53:58.162Z,1.57
2019-05-10T08:56:24.585Z,1.60
2019-05-10T08:58:53.631Z,2.00
2019-05-10T09:01:29.685Z,1.70
2019-05-10T09:03:55.157Z,1.77
2019-05-10T09:06:21.891Z,1.87
2019-05-10T09:08:52.873Z,1.70
2019-05-10T09:11:17.609Z,1.80
2019-05-10T09:13:46.114Z,1.30
2019-05-10T09:16:13.757Z,1.80
2019-05-10T09:18:46.616Z,2.30
2019-05-10T09:21:11.510Z,1.77
2019-05-10T09:23:39.022Z,1.80
2019-05-10T09:26:10.293Z,3.40
2019-05-10T09:28:35.258Z,3.93
2019-05-10T09:31:17.053Z,2.40
2019-05-10T09:33:32.007Z,1.70
2019-05-10T09:35:59.484Z,6.00
2019-05-10T09:38:28.603Z,3.03
2019-05-10T09:40:56.428Z,1.57
2019-05-10T09:43:24.379Z,1.60
2019-05-10T09:45:53.034Z,1.70
2019-05-10T09:48:22.641Z,1.47
2019-05-10T09:50:49.494Z,1.33
2019-05-10T09:53:23.677Z,1.50
2019-05-10T09:55:55.273Z,1.50
2019-05-10T09:58:15.006Z,1.40
2019-05-10T10:00:42.275Z,1.90
2019-05-10T10:03:12.634Z,1.50
2019-05-10T10:05:40.344Z,1.40
2019-05-10T10:08:09.062Z,1.50
2019-05-10T10:10:37.289Z,1.50
2019-05-10T10:13:11.492Z,1.20
2019-05-10T10:15:34.354Z,1.80
2019-05-10T10:18:01.766Z,1.50
2019-05-10T10:20:30.017Z,1.50
2019-05-10T10:22:57.414Z,1.33
2019-05-10T10:25:27.793Z,1.63
2019-05-10T10:27:53.646Z,1.93
2019-05-10T10:30:21.635Z,1.47
2019-05-10T10:32:49.012Z,1.73
2019-05-10T10:35:20.987Z,1.40
2019-05-10T10:37:47.401Z,1.27
2019-05-10T10:40:17.662Z,1.30
2019-05-10T10:42:43.446Z,1.27
2019-05-10T10:45:10.878Z,1.40
2019-05-10T10:47:38.341Z,1.20
2019-05-10T10:50:09.056Z,1.07
2019-05-10T10:52:37.634Z,1.03
2019-05-10T10:55:10.892Z,1.23
2019-05-10T10:57:37.205Z,1.00
2019-05-10T11:00:07.798Z,1.00
2019-05-10T11:02:35.038Z,1.10
2019-05-10T11:05:02.382Z,1.07
2019-05-10T11:07:30.337Z,1.03
2019-05-10T11:10:08.336Z,1.37
2019-05-10T11:12:27.565Z,0.80
2019-05-10T11:14:54.906Z,1.07
2019-05-10T11:17:22.397Z,1.10
2019-05-10T11:19:49.737Z,1.10
2019-05-10T11:22:16.981Z,1.07
2019-05-10T11:24:44.241Z,1.10
2019-05-10T11:27:13.060Z,1.07
2019-05-10T11:29:41.830Z,1.00
2019-05-10T11:32:15.876Z,1.00
2019-05-10T11:34:38.987Z,1.10
2019-05-10T11:37:06.369Z,1.20
2019-05-10T11:39:45.157Z,0.80
2019-05-10T11:42:07.188Z,1.53
2019-05-10T11:44:31.801Z,1.00
2019-05-10T11:47:01.348Z,1.20
2019-05-10T11:49:30.607Z,1.23
2019-05-10T11:51:58.664Z,1.10
2019-05-10T11:54:26.175Z,1.10
2019-05-10T11:56:58.537Z,1.00
2019-05-10T11:59:27.328Z,0.90
2019-05-10T12:01:57.979Z,1.10
2019-05-10T12:04:28.928Z,1.07
2019-05-10T12:06:50.389Z,1.10
2019-05-10T12:09:20.846Z,1.10
2019-05-10T12:11:56.724Z,1.10
2019-05-10T12:14:16.501Z,1.10
2019-05-10T12:16:43.770Z,1.33
2019-05-10T12:19:19.702Z,1.27
2019-05-10T12:21:40.001Z,1.27
2019-05-10T12:24:26.011Z,1.23
2019-05-10T12:29:12.391Z,1.17
2019-05-10T12:31:34.244Z,1.27
2019-05-10T12:34:09.302Z,1.47
2019-05-10T12:36:31.402Z,1.23
2019-05-10T12:38:59.036Z,1.37
2019-05-10T12:41:27.865Z,1.10
2019-05-10T12:44:02.909Z,0.90
2019-05-10T12:46:24.096Z,1.20
2019-05-10T12:48:51.756Z,1.23
2019-05-10T12:51:21.141Z,1.17
2019-05-10T12:53:49.801Z,0.90
2019-05-10T12:56:17.350Z,1.47
2019-05-10T12:58:44.604Z,0.90
2019-05-10T13:01:11.872Z,1.30
2019-05-10T13:03:39.652Z,1.10
2019-05-10T13:06:07.030Z,1.17
2019-05-10T13:08:35.707Z,1.60
2019-05-10T13:11:03.491Z,1.13
2019-05-10T13:13:32.776Z,1.50
2019-05-10T13:16:03.568Z,1.30
2019-05-10T13:18:49.895Z,1.30
2019-05-10T13:20:58.285Z,1.30
2019-05-10T13:23:25.886Z,1.30
2019-05-10T13:25:53.458Z,1.10
2019-05-10T13:28:21.236Z,1.10
2019-05-10T13:30:48.663Z,1.43
2019-05-10T13:33:28.486Z,1.10
2019-05-10T13:35:44.902Z,1.17
2019-05-10T13:38:12.149Z,1.20
2019-05-10T13:40:45.719Z,1.10
2019-05-10T13:43:08.652Z,1.30
2019-05-10T13:45:37.886Z,1.50
2019-05-10T13:48:04.881Z,1.47
2019-05-10T13:50:32.122Z,1.17
2019-05-10T13:52:59.469Z,1.10
2019-05-10T13:55:26.716Z,1.10
2019-05-10T13:57:54.347Z,1.17
2019-05-10T14:00:21.778Z,1.10
2019-05-10T14:02:49.052Z,0.90
2019-05-10T14:05:17.731Z,1.03
2019-05-10T14:07:51.638Z,1.20
2019-05-10T14:10:18.261Z,1.07
2019-05-10T14:12:43.758Z,1.10
2019-05-10T14:15:13.557Z,1.20
2019-05-10T14:17:40.204Z,1.20
2019-05-10T14:20:19.688Z,1.10
2019-05-10T14:22:37.064Z,1.10
2019-05-10T14:25:07.335Z,0.87
2019-05-10T14:27:35.907Z,0.90
2019-05-10T14:30:07.251Z,1.20
2019-05-10T14:32:33.895Z,0.97
2019-05-10T14:35:01.138Z,1.20
2019-05-10T14:37:28.401Z,0.90
2019-05-10T14:39:55.731Z,1.00
2019-05-10T14:42:31.381Z,1.10
2019-05-10T14:44:52.407Z,1.40
2019-05-10T14:47:19.818Z,0.93
2019-05-10T14:49:48.777Z,1.17
2019-05-10T14:52:16.398Z,1.43
2019-05-10T14:54:49.350Z,0.90
2019-05-10T14:57:12.987Z,0.90
2019-05-10T14:59:40.259Z,1.20
2019-05-10T15:02:07.525Z,1.20
2019-05-10T15:04:50.324Z,1.17
2019-05-10T15:07:08.438Z,0.83
2019-05-10T15:09:32.737Z,1.20
2019-05-10T15:11:59.982Z,1.40
2019-05-10T15:14:27.258Z,1.00
2019-05-10T15:16:54.665Z,1.00
2019-05-10T15:19:25.857Z,1.00
2019-05-10T15:21:51.627Z,1.00
2019-05-10T15:24:19.204Z,0.90
2019-05-10T15:26:46.494Z,0.90
2019-05-10T15:29:14.870Z,1.10
2019-05-10T15:31:42.739Z,1.40
2019-05-10T15:34:10.738Z,1.07
2019-05-10T15:36:37.978Z,1.00
2019-05-10T15:39:06.297Z,1.03
2019-05-10T15:41:33.607Z,0.90
2019-05-10T15:44:00.867Z,1.13
2019-05-10T15:46:36.265Z,1.30
2019-05-10T15:48:57.102Z,1.00
2019-05-10T15:51:35.766Z,1.10
2019-05-10T15:54:03.833Z,0.97
2019-05-10T15:56:22.574Z,1.63
2019-05-10T15:58:49.845Z,1.50
2019-05-10T16:01:26.036Z,1.13
2019-05-10T16:03:46.318Z,1.07
2019-05-10T16:06:13.649Z,1.37
2019-05-10T16:08:41.179Z,0.80
2019-05-10T16:11:17.988Z,0.90
2019-05-10T16:13:37.490Z,0.90
2019-05-10T16:16:04.758Z,1.10
2019-05-10T16:18:33.452Z,1.20
2019-05-10T16:21:01.006Z,1.10
2019-05-10T16:23:28.507Z,1.10
2019-05-10T16:25:55.838Z,0.90
2019-05-10T16:28:23.086Z,1.10
2019-05-10T16:30:50.348Z,0.90
2019-05-10T16:33:18.187Z,1.00
2019-05-10T16:35:49.599Z,0.97
2019-05-10T16:38:14.733Z,1.00
2019-05-10T16:40:44.415Z,0.97
2019-05-10T16:43:13.405Z,1.10
2019-05-10T16:45:40.122Z,1.00
2019-05-10T16:48:07.386Z,0.90
2019-05-10T16:50:38.143Z,0.80
2019-05-10T16:53:08.114Z,1.10
2019-05-10T16:55:35.610Z,1.10
2019-05-10T16:58:09.126Z,0.97
2019-05-10T17:00:33.863Z,1.10
2019-05-10T17:03:01.656Z,1.00
2019-05-10T17:05:29.369Z,1.03
2019-05-10T17:07:58.818Z,0.90
2019-05-10T17:10:27.016Z,1.03
2019-05-10T17:12:59.563Z,1.10
2019-05-10T17:15:24.010Z,0.80
2019-05-10T17:17:51.285Z,1.03
2019-05-10T17:20:19.114Z,0.80
2019-05-10T17:22:46.395Z,1.00
2019-05-10T17:25:13.873Z,1.40
2019-05-10T17:27:41.201Z,1.50
2019-05-10T17:30:08.808Z,0.90
2019-05-10T17:32:36.342Z,1.10
2019-05-10T17:35:05.326Z,1.03
2019-05-10T17:37:35.931Z,1.43
2019-05-10T17:40:09.965Z,1.20
2019-05-10T17:42:35.534Z,1.00
2019-05-10T17:45:04.450Z,1.10
2019-05-10T17:47:33.479Z,0.90
2019-05-10T17:50:00.979Z,0.80
2019-05-10T17:52:28.242Z,1.40
2019-05-10T17:54:55.750Z,1.27
2019-05-10T17:57:23.039Z,1.10
2019-05-10T17:59:53.115Z,1.10
2019-05-10T18:02:19.274Z,1.00
2019-05-10T18:04:46.533Z,1.30
2019-05-10T18:07:13.867Z,1.20
2019-05-10T18:09:41.372Z,1.10
2019-05-10T18:12:08.894Z,1.33
2019-05-10T18:14:36.159Z,1.27
2019-05-10T18:17:03.427Z,1.23
2019-05-10T18:19:30.674Z,1.17
2019-05-10T18:22:00.817Z,1.40
2019-05-10T18:24:30.112Z,1.20
2019-05-10T18:26:56.264Z,1.27
2019-05-10T18:29:23.507Z,1.40
2019-05-10T18:31:55.952Z,1.30
2019-05-10T18:34:20.262Z,1.30
2019-05-10T18:36:52.007Z,1.17
2019-05-10T18:39:17.826Z,1.10
2019-05-10T18:41:46.409Z,1.43
2019-05-10T18:44:15.829Z,1.33
2019-05-10T18:46:43.231Z,1.33
2019-05-10T18:49:10.502Z,1.10
2019-05-10T18:51:37.743Z,1.30
2019-05-10T18:54:05.183Z,1.73
2019-05-10T18:56:33.252Z,1.47
2019-05-10T18:59:06.769Z,1.20
2019-05-10T19:01:32.988Z,1.30
2019-05-10T19:03:58.626Z,1.50
2019-05-10T19:06:25.877Z,1.30
2019-05-10T19:08:53.138Z,1.33
2019-05-10T19:11:20.413Z,1.40
2019-05-10T19:13:53.591Z,1.43
2019-05-10T19:16:16.966Z,1.40
2019-05-10T19:18:44.483Z,1.60
2019-05-10T19:21:11.804Z,1.40
2019-05-10T19:23:39.068Z,1.57
2019-05-10T19:26:06.307Z,1.63
2019-05-10T19:28:33.835Z,2.00
2019-05-10T19:31:01.324Z,1.87
2019-05-10T19:33:36.022Z,1.40
2019-05-10T19:35:57.553Z,1.53
2019-05-10T19:38:24.819Z,1.43
2019-05-10T19:40:52.059Z,1.47
2019-05-10T19:43:21.879Z,1.20
2019-05-10T19:45:51.145Z,1.70
2019-05-10T19:48:17.530Z,1.50
2019-05-10T19:50:44.787Z,1.47
2019-05-10T19:53:12.306Z,1.53
2019-05-10T19:55:39.553Z,1.83
2019-05-10T19:58:06.889Z,1.60
2019-05-10T20:00:34.140Z,1.50
2019-05-10T20:03:01.407Z,1.60
2019-05-10T20:05:28.941Z,1.50
2019-05-10T20:07:56.182Z,1.47
2019-05-10T20:10:23.452Z,1.27
2019-05-10T20:12:50.699Z,1.77
2019-05-10T20:15:18.031Z,1.53
2019-05-10T20:17:45.512Z,1.40
2019-05-10T20:20:13.271Z,1.90
2019-05-10T20:22:40.851Z,1.90
2019-05-10T20:25:08.185Z,1.40
2019-05-10T20:27:35.435Z,1.33
2019-05-10T20:30:02.709Z,1.63
2019-05-10T20:32:29.947Z,1.90
2019-05-10T20:34:57.214Z,1.70
2019-05-10T20:37:24.465Z,1.60
2019-05-10T20:39:51.722Z,1.37
2019-05-10T20:42:18.967Z,1.70
2019-05-10T20:44:46.235Z,1.50
2019-05-10T20:47:13.491Z,1.67
2019-05-10T20:49:40.750Z,1.30
2019-05-10T20:52:08.117Z,1.80
2019-05-10T20:54:35.475Z,1.57
2019-05-10T20:57:02.722Z,1.40
2019-05-10T20:59:29.986Z,1.50
2019-05-10T21:01:57.318Z,1.87
2019-05-10T21:04:24.851Z,1.67
2019-05-10T21:06:52.110Z,1.53
2019-05-10T21:09:19.380Z,1.60
2019-05-10T21:11:46.623Z,1.67
2019-05-10T21:14:13.892Z,2.13
2019-05-10T21:16:41.134Z,2.00
2019-05-10T21:19:08.664Z,2.10
2019-05-10T21:21:35.989Z,1.90
2019-05-10T21:24:03.263Z,1.53
2019-05-10T21:26:30.509Z,1.60
2019-05-10T21:28:57.805Z,1.80
2019-05-10T21:31:25.094Z,1.63
2019-05-10T21:34:07.535Z,1.57
2019-05-10T21:36:24.412Z,1.80
2019-05-10T21:38:50.608Z,1.70
2019-05-10T21:41:17.942Z,1.60
2019-05-10T21:43:45.200Z,1.57
2019-05-10T21:46:12.458Z,2.10
2019-05-10T21:48:39.952Z,1.60
2019-05-10T21:51:07.214Z,1.63
2019-05-10T21:53:34.462Z,1.70
2019-05-10T21:56:01.727Z,1.87
2019-05-10T21:58:28.986Z,1.60
2019-05-10T22:00:56.618Z,1.70
2019-05-10T22:03:23.965Z,2.20
2019-05-10T22:05:51.297Z,1.90
2019-05-10T22:08:18.548Z,1.60
2019-05-10T22:10:45.811Z,1.77
2019-05-10T22:13:13.057Z,1.47
2019-05-10T22:15:40.323Z,1.67
2019-05-10T22:18:07.569Z,2.23
2019-05-10T22:20:34.839Z,2.30
2019-05-10T22:23:02.096Z,2.30
2019-05-10T22:25:29.362Z,1.90
2019-05-10T22:27:56.610Z,2.20
2019-05-10T22:30:24.205Z,1.87
2019-05-10T22:32:51.454Z,1.80
2019-05-10T22:35:18.718Z,1.40
2019-05-10T22:37:45.962Z,1.70
2019-05-10T22:40:13.300Z,1.77
2019-05-10T22:42:40.541Z,1.67
2019-05-10T22:45:07.859Z,1.73
2019-05-10T22:47:35.128Z,1.60
2019-05-10T22:50:02.546Z,1.80
2019-05-10T22:52:29.844Z,1.83
2019-05-10T22:55:00.327Z,1.80
2019-05-10T22:57:26.122Z,1.63
2019-05-10T22:59:53.396Z,1.73
2019-05-10T23:02:20.722Z,2.03
2019-05-10T23:04:47.980Z,1.90
2019-05-10T23:07:15.482Z,1.70
2019-05-10T23:09:42.747Z,1.40
2019-05-10T23:12:09.998Z,1.80
2019-05-10T23:14:37.263Z,1.97
2019-05-10T23:17:04.523Z,1.87
2019-05-10T23:19:31.771Z,2.00
2019-05-10T23:21:59.310Z,1.93
2019-05-10T23:24:37.077Z,1.97
2019-05-10T23:27:04.689Z,2.50
2019-05-10T23:29:32.202Z,2.00
2019-05-10T23:31:59.734Z,2.30
2019-05-10T23:34:26.987Z,2.47
2019-05-10T23:36:54.251Z,2.40
2019-05-10T23:39:21.756Z,2.43
2019-05-10T23:41:49.021Z,2.17
2019-05-10T23:44:16.275Z,2.40
2019-05-10T23:46:43.814Z,2.40
2019-05-10T23:49:11.121Z,2.23
2019-05-10T23:51:38.382Z,2.30
2019-05-10T23:54:05.636Z,2.10
2019-05-10T23:56:32.878Z,2.43
2019-05-10T23:59:00.171Z,2.03
